Grafton, VT (05146)

11:03 AM EDT on September 22, 2014 (GMT -0400)
Goldthwaite Road | Change Station
CLOSE
Current Station
Personal Weather Station
Location: Chester, VT
Elevation: 1227 ft
Nearby Weather Stations

Elev 1227 ft 43.27 °N, 72.65 °W | Updated 3 seconds ago

Overcast
Overcast
61.0 °F
Feels Like 61.0 °F
N
3.6
Wind Variable Wind from WSW
Gusts 6.3 mph

Today
High -- | Low -- °F
--% Chance of Precip.
Yesterday
High -- | Low -- °F
Precip. -- in
6:37 AM 6:47 PM
Waning Crescent, 3% visible
Pressure 29.79 in
Visibility 10.0 miles
Clouds Clear
Dew Point 53 °F
Humidity 76%
Rainfall 0.00 in
Snow Depth Not available.
UV 5 out of 12
Pollen 2.60 out of 12
Ozone Good
Flu Activity Not available.
METAR KVSF 221454Z AUTO 29011G23KT 10SM CLR 16/06 A2979 RMK AO2 SLP086 T01610061 51042

More Conditions Fewer Conditions

Pressure 29.79 in
Visibility 10.0 miles
Clouds Clear
Dew Point 53 °F
Humidity 76%
Rainfall 0.00 in
Snow Depth Not available.
UV 5 out of 12
Pollen 2.60 out of 12
Ozone Good
Flu Activity Not available.
METAR KVSF 221454Z AUTO 29011G23KT 10SM CLR 16/06 A2979 RMK AO2 SLP086 T01610061 51042

More Conditions Fewer Conditions

10-Day Weather Forecast

Almanac

Astronomy

Sep. 22, 2014 Rise Set
Actual Time 6:37 AM EDT 6:47 PM EDT
Civil Twilight 6:09 AM EDT 7:16 PM EDT
Nautical Twilight 5:35 AM EDT 7:49 PM EDT
Astronomical Twilight 5:01 AM EDT 8:23 PM EDT
Moon 5:02 AM EDT 5:55 PM EDT
Length of Visible Light 13h 06m
Length of Day
12h 10m
Tomorrow will be 2m 54s shorter.
Waning Crescent, 3% of the Moon is Illuminated
Today
Waning Crescent
Sep 24
New
Oct 1
First Quarter
Oct 8
Full
Oct 15
Last Quarter

Today's Extremes

State Highs State Lows

Community

WunderPhotos

Upload Photos

1,755,463 photos uploaded!

WunderBlogs® & News

Nearby

Air Quality

  Air Quality AQ Index Pollutant
Yesterday Good
OZONE
Yesterday Good
PM2.5
Current Good
OZONE
Monday Good
PM2.5

Snow Depth

Station Depth Elevation
No new snow has been reported.

Earthquake Activity

City Distance Mag. Time & Date
No recent earthquake activity has been reported nearby.
Minimum magnitude displayed is 2.5.

Coastal Water Temperatures

Place Temperature
No Stations Reporting

Nearby Weather Stations